25 Max
16 km/h
7 Mini

LFMY 212200Z AUTO 36005KT 320V040 CAVOK 09/M01 Q1027

TAF LFMY 211619Z 2116/2215 CNL= TAF AMD LFRD 211616Z 2116/2212 22012KT 9999 SCT035 TEMPO 2116/2118 22015G25KT PROB30 TEMPO 2202/2206 BKN012 TEMPO 2202/2212 23015G25KT TEMPO 2206/2209 BKN012 BECMG 2209/2211 BKN012